Time;durP1;ratioP1;P1;durP2;ratioP2;P2;SDS_P1;SDS_P2;PMS_P1;PMS_P2;Temp;Humidity;BMP_temperature;BMP_pressure;BME280_temperature;BME280_humidity;BME280_pressure;Samples;Min_cycle;Max_cycle;Signal;HPM_P1;HPM_P2
2023/07/23 00:00:04;;;;;;;2.78;2.10;;;20.90;64.10;;;;;;10363736;28;20022;-56
2023/07/23 00:05:05;;;;;;;2.53;1.63;;;20.90;64.10;;;;;;10364480;28;20029;-55
2023/07/23 00:10:09;;;;;;;3.10;2.28;;;20.90;64.20;;;;;;10391433;28;20120;-56
2023/07/23 00:15:09;;;;;;;3.05;1.90;;;20.90;64.20;;;;;;10390238;28;20485;-56
2023/07/23 00:20:12;;;;;;;3.33;2.10;;;20.90;64.10;;;;;;10377473;28;20026;-55
2023/07/23 00:25:12;;;;;;;2.60;1.90;;;20.90;64.10;;;;;;10364275;28;20448;-55
2023/07/23 00:30:13;;;;;;;2.95;2.00;;;20.90;64.20;;;;;;10363853;28;20052;-56
2023/07/23 00:35:14;;;;;;;2.65;1.92;;;20.90;64.20;;;;;;10363604;28;20021;-56
2023/07/23 00:40:15;;;;;;;3.47;2.30;;;20.90;64.20;;;;;;10363429;28;20103;-54
2023/07/23 00:45:15;;;;;;;4.93;1.70;;;20.90;64.20;;;;;;10361935;28;20465;-56
2023/07/23 00:50:16;;;;;;;2.42;1.73;;;20.90;64.20;;;;;;10363503;28;20034;-56
2023/07/23 00:55:17;;;;;;;3.42;2.20;;;20.90;64.20;;;;;;10363221;28;20049;-56
2023/07/23 01:00:18;;;;;;;3.58;1.77;;;20.90;64.20;;;;;;10362425;28;20483;-56
2023/07/23 01:05:19;;;;;;;3.42;2.20;;;20.80;64.20;;;;;;10362299;28;20049;-56
2023/07/23 01:10:20;;;;;;;3.97;2.17;;;20.90;64.20;;;;;;10389932;28;20262;-56
2023/07/23 01:15:21;;;;;;;3.50;2.13;;;20.90;64.30;;;;;;10388886;28;20782;-55
2023/07/23 01:20:22;;;;;;;2.92;1.85;;;20.80;64.20;;;;;;10383517;28;20041;-56
2023/07/23 01:25:22;;;;;;;4.20;2.60;;;20.80;64.20;;;;;;10362114;28;20113;-55
2023/07/23 01:30:23;;;;;;;3.03;1.90;;;20.80;64.20;;;;;;10360071;28;20026;-55
2023/07/23 01:35:24;;;;;;;3.67;2.00;;;20.80;64.20;;;;;;10361454;28;20802;-55
2023/07/23 01:40:25;;;;;;;3.38;2.20;;;20.80;64.30;;;;;;10361040;28;20398;-56
2023/07/23 01:45:29;;;;;;;3.10;2.03;;;20.80;64.30;;;;;;10361432;28;20018;-55
2023/07/23 01:50:30;;;;;;;3.20;1.85;;;20.80;64.20;;;;;;10361255;28;20371;-56
2023/07/23 01:55:30;;;;;;;3.65;2.38;;;20.80;64.30;;;;;;10359540;28;20436;-56
2023/07/23 02:00:31;;;;;;;3.00;2.17;;;20.80;64.30;;;;;;10359981;28;20068;-55
2023/07/23 02:05:32;;;;;;;5.70;2.80;;;20.80;64.30;;;;;;10360725;28;20026;-56
2023/07/23 02:10:33;;;;;;;3.97;2.35;;;20.80;64.30;;;;;;10390361;28;20037;-56
2023/07/23 02:15:34;;;;;;;2.78;2.05;;;20.80;64.30;;;;;;10381279;28;20054;-56
2023/07/23 02:20:36;;;;;;;3.58;2.05;;;20.80;64.30;;;;;;10360756;28;20056;-57
2023/07/23 02:25:39;;;;;;;2.97;2.03;;;20.80;64.30;;;;;;10362071;28;20018;-56
2023/07/23 02:30:40;;;;;;;3.53;1.98;;;20.80;64.30;;;;;;10368407;28;20030;-56
2023/07/23 02:35:42;;;;;;;4.05;2.42;;;20.80;64.30;;;;;;10367894;28;20045;-55
2023/07/23 02:40:43;;;;;;;4.25;1.83;;;20.70;64.30;;;;;;10368085;28;20042;-56
2023/07/23 02:45:44;;;;;;;2.58;1.75;;;20.80;64.30;;;;;;10366647;28;20033;-55
2023/07/23 02:50:44;;;;;;;4.40;2.17;;;20.80;64.40;;;;;;10367447;28;20173;-54
2023/07/23 02:55:46;;;;;;;2.67;1.90;;;20.80;64.30;;;;;;10367443;28;20812;-55
2023/07/23 03:00:46;;;;;;;3.85;2.35;;;20.70;64.30;;;;;;10367369;28;20511;-56
2023/07/23 03:05:47;;;;;;;3.22;1.73;;;20.80;64.30;;;;;;10366811;28;20029;-54
2023/07/23 03:10:48;;;;;;;4.18;2.67;;;20.80;64.30;;;;;;10399327;28;20487;-55
2023/07/23 03:15:49;;;;;;;3.53;2.15;;;20.70;64.30;;;;;;10386797;28;20030;-55
2023/07/23 03:20:49;;;;;;;2.65;1.98;;;20.80;64.40;;;;;;10366428;28;20033;-55
2023/07/23 03:25:50;;;;;;;2.90;1.60;;;20.70;64.30;;;;;;10366449;28;20117;-55
2023/07/23 03:30:51;;;;;;;3.38;2.22;;;20.70;64.50;;;;;;10365696;28;20116;-56
2023/07/23 03:35:51;;;;;;;3.05;1.90;;;20.70;64.40;;;;;;10365892;28;20018;-56
2023/07/23 03:40:52;;;;;;;3.10;2.10;;;20.70;64.40;;;;;;10365012;28;20052;-56
2023/07/23 03:45:53;;;;;;;3.13;2.03;;;20.70;64.40;;;;;;10364488;28;20156;-56
2023/07/23 03:50:53;;;;;;;2.97;1.92;;;20.70;64.40;;;;;;10360677;28;20105;-56
2023/07/23 03:55:54;;;;;;;3.00;2.35;;;20.70;64.40;;;;;;10366524;28;20045;-56
2023/07/23 04:00:55;;;;;;;2.70;2.13;;;20.70;64.40;;;;;;10371025;28;20424;-55
2023/07/23 04:05:56;;;;;;;4.25;2.42;;;20.70;64.40;;;;;;10388213;28;20452;-56
2023/07/23 04:10:57;;;;;;;3.10;2.28;;;20.70;64.40;;;;;;10399723;28;20407;-55
2023/07/23 04:16:01;;;;;;;3.60;2.10;;;20.70;64.50;;;;;;10406362;28;20029;-57
2023/07/23 04:21:02;;;;;;;3.38;1.95;;;20.70;64.50;;;;;;10369671;28;20029;-55
2023/07/23 04:26:02;;;;;;;3.78;1.95;;;20.70;64.50;;;;;;10365288;28;20461;-55
2023/07/23 04:31:03;;;;;;;3.30;2.00;;;20.70;64.40;;;;;;10365117;28;20148;-54
2023/07/23 04:36:07;;;;;;;3.08;2.10;;;20.70;64.50;;;;;;10364735;28;20055;-56
2023/07/23 04:41:08;;;;;;;2.85;2.40;;;20.70;64.50;;;;;;10364442;28;20566;-55
2023/07/23 04:46:09;;;;;;;3.05;2.20;;;20.70;64.50;;;;;;10364911;28;20034;-57
2023/07/23 04:51:10;;;;;;;3.83;2.38;;;20.70;64.50;;;;;;10378503;28;20246;-55
2023/07/23 04:56:10;;;;;;;4.88;2.67;;;20.70;64.40;;;;;;10364126;28;20389;-55
2023/07/23 05:01:12;;;;;;;3.65;2.45;;;20.70;64.50;;;;;;10364799;28;20024;-55
2023/07/23 05:06:13;;;;;;;4.40;2.10;;;20.70;65.20;;;;;;10363673;28;20022;-56
2023/07/23 05:11:13;;;;;;;4.13;3.17;;;20.70;64.50;;;;;;10399540;28;20025;-57
2023/07/23 05:16:14;;;;;;;2.78;2.17;;;20.70;64.50;;;;;;10380528;28;20612;-56
2023/07/23 05:21:15;;;;;;;3.13;1.95;;;20.70;64.60;;;;;;10362080;28;20466;-56
2023/07/23 05:26:15;;;;;;;3.10;2.03;;;20.70;64.60;;;;;;10363632;28;20050;-56
2023/07/23 05:31:17;;;;;;;3.92;2.47;;;20.70;64.50;;;;;;10362821;28;20628;-55
2023/07/23 05:36:18;;;;;;;2.35;1.80;;;20.70;64.60;;;;;;10378329;28;20021;-56
2023/07/23 05:41:18;;;;;;;3.60;2.22;;;20.70;64.60;;;;;;10389537;28;20504;-56
2023/07/23 05:46:19;;;;;;;3.65;2.10;;;20.70;64.50;;;;;;10362475;28;20059;-55
2023/07/23 05:51:20;;;;;;;2.97;2.10;;;20.70;64.60;;;;;;10381234;28;20108;-56
2023/07/23 05:56:20;;;;;;;3.45;2.08;;;20.70;64.60;;;;;;10370607;28;20109;-55
2023/07/23 06:01:21;;;;;;;2.67;1.70;;;20.70;64.60;;;;;;10362007;28;20393;-55
2023/07/23 06:06:23;;;;;;;2.78;2.13;;;20.70;64.60;;;;;;10360665;28;20026;-56
2023/07/23 06:11:23;;;;;;;3.85;2.42;;;20.60;64.50;;;;;;10399476;28;20091;-56
2023/07/23 06:16:25;;;;;;;3.63;2.25;;;20.70;64.60;;;;;;10402499;28;20076;-55
2023/07/23 06:21:26;;;;;;;4.07;2.67;;;20.60;64.50;;;;;;10402731;28;20018;-55
2023/07/23 06:26:27;;;;;;;3.22;2.30;;;20.70;64.60;;;;;;10418031;28;20103;-56
2023/07/23 06:31:28;;;;;;;2.95;2.22;;;20.70;64.60;;;;;;10401097;28;20124;-56
2023/07/23 06:36:28;;;;;;;3.53;2.00;;;20.70;64.60;;;;;;10402206;28;20412;-56
2023/07/23 06:41:29;;;;;;;3.55;2.40;;;20.70;64.60;;;;;;10402379;28;20422;-56
2023/07/23 06:46:30;;;;;;;3.08;2.10;;;20.70;64.70;;;;;;10402577;28;20045;-56
2023/07/23 06:51:30;;;;;;;3.35;2.15;;;20.70;64.70;;;;;;10402113;28;20515;-56
2023/07/23 06:56:31;;;;;;;3.70;2.65;;;20.60;64.70;;;;;;10402189;28;20451;-55
2023/07/23 07:01:32;;;;;;;3.22;2.20;;;20.70;64.60;;;;;;10400687;28;20388;-54
2023/07/23 07:06:32;;;;;;;4.07;2.38;;;20.60;64.50;;;;;;10402182;28;20107;-56
2023/07/23 07:11:33;;;;;;;5.38;2.58;;;20.70;64.60;;;;;;10401935;28;20533;-54
2023/07/23 07:16:34;;;;;;;2.17;1.55;;;20.60;64.60;;;;;;10382394;28;20026;-55
2023/07/23 07:21:34;;;;;;;3.55;2.75;;;20.60;64.70;;;;;;10367757;28;20108;-55
2023/07/23 07:26:35;;;;;;;3.05;2.25;;;20.70;64.70;;;;;;10367846;28;20046;-56
2023/07/23 07:31:35;;;;;;;3.08;2.03;;;20.60;64.60;;;;;;10367784;28;20434;-55
2023/07/23 07:36:38;;;;;;;3.22;2.33;;;20.60;64.70;;;;;;10367394;28;20060;-56
2023/07/23 07:41:39;;;;;;;5.38;2.85;;;20.60;64.70;;;;;;10367603;28;20038;-55
2023/07/23 07:46:39;;;;;;;2.90;2.03;;;20.60;64.80;;;;;;10366962;28;20022;-56
2023/07/23 07:51:43;;;;;;;3.13;2.15;;;20.60;64.90;;;;;;10365828;28;20105;-56
2023/07/23 07:56:44;;;;;;;3.78;2.28;;;20.60;64.80;;;;;;10366981;28;20100;-55
2023/07/23 08:01:45;;;;;;;3.47;2.70;;;20.60;64.80;;;;;;10367028;28;20049;-56
2023/07/23 08:06:46;;;;;;;2.97;2.22;;;20.60;64.80;;;;;;10366967;28;20023;-57
2023/07/23 08:11:48;;;;;;;22.05;4.07;;;20.60;64.80;;;;;;10402298;28;20029;-56
2023/07/23 08:16:52;;;;;;;14.50;4.05;;;20.60;65.50;;;;;;10424281;28;20072;-57
2023/07/23 08:21:53;;;;;;;15.35;2.92;;;20.70;66.00;;;;;;10408600;28;20083;-56
2023/07/23 08:26:57;;;;;;;22.70;4.20;;;20.70;66.10;;;;;;10406984;28;20083;-59
2023/07/23 08:31:58;;;;;;;9.02;3.08;;;20.70;65.90;;;;;;10406970;28;20036;-57
2023/07/23 08:36:59;;;;;;;14.35;3.25;;;20.70;66.40;;;;;;10386837;28;20026;-56
2023/07/23 08:42:14;;;;;;;20.48;4.32;;;20.70;66.60;;;;;;10366792;28;20081;-56
2023/07/23 08:47:15;;;;;;;22.30;3.92;;;20.70;66.40;;;;;;10394380;28;20044;-57
2023/07/23 08:52:18;;;;;;;24.85;5.28;;;20.70;67.40;;;;;;10401657;28;20092;-56
2023/07/23 08:57:18;;;;;;;13.98;3.72;;;20.70;67.80;;;;;;10391933;28;20099;-57
2023/07/23 09:02:20;;;;;;;15.63;4.05;;;20.70;67.50;;;;;;10399119;28;20044;-56
2023/07/23 09:07:21;;;;;;;7.95;3.67;;;20.70;68.00;;;;;;10382540;28;20021;-55
2023/07/23 09:12:22;;;;;;;15.27;4.15;;;20.60;67.40;;;;;;10406736;28;20018;-56
2023/07/23 09:17:23;;;;;;;13.55;3.97;;;20.60;67.80;;;;;;10371810;28;20030;-55
2023/07/23 09:22:23;;;;;;;8.80;3.60;;;20.70;67.70;;;;;;10388786;28;20116;-56
2023/07/23 09:27:24;;;;;;;9.73;3.22;;;20.70;67.70;;;;;;10385861;28;20132;-56
2023/07/23 09:32:25;;;;;;;9.10;4.47;;;20.70;67.80;;;;;;10405720;28;20440;-56
2023/07/23 09:37:27;;;;;;;13.52;3.63;;;20.70;68.30;;;;;;10405251;28;20534;-56
2023/07/23 09:42:27;;;;;;;15.30;4.10;;;20.80;68.30;;;;;;10393451;28;20050;-57
2023/07/23 09:47:28;;;;;;;16.02;5.07;;;20.90;68.10;;;;;;10363462;28;20489;-57
2023/07/23 09:52:37;;;;;;;14.60;4.45;;;21.00;67.70;;;;;;10365803;28;20014;-58
2023/07/23 09:57:39;;;;;;;10.48;3.80;;;21.00;68.30;;;;;;10404829;28;20080;-58
2023/07/23 10:02:41;;;;;;;14.77;3.33;;;21.20;67.90;;;;;;10371837;28;20030;-57
2023/07/23 10:07:45;;;;;;;16.70;4.45;;;21.30;68.40;;;;;;10370092;28;20481;-58
2023/07/23 10:12:46;;;;;;;14.45;3.72;;;21.30;68.40;;;;;;10383196;28;20022;-57
2023/07/23 10:17:56;;;;;;;14.95;4.55;;;21.30;68.70;;;;;;10388060;28;20248;-57
2023/07/23 10:22:57;;;;;;;10.82;3.53;;;21.30;68.90;;;;;;10404773;28;20025;-58
2023/07/23 10:28:03;;;;;;;9.15;2.97;;;21.20;68.60;;;;;;10403669;28;20036;-57
2023/07/23 10:33:28;;;;;;;15.70;4.38;;;21.30;69.00;;;;;;10397934;28;20026;-58
2023/07/23 10:38:32;;;;;;;10.70;4.63;;;21.20;69.00;;;;;;10396955;28;20024;-57
2023/07/23 10:43:39;;;;;;;12.02;3.97;;;21.30;69.30;;;;;;10400321;28;20485;-58
2023/07/23 10:48:50;;;;;;;8.50;3.50;;;21.20;69.20;;;;;;10405145;28;20036;-60
2023/07/23 10:54:05;;;;;;;20.20;4.25;;;21.10;69.40;;;;;;10405850;28;20105;-58
2023/07/23 10:59:14;;;;;;;13.77;3.63;;;21.00;70.10;;;;;;10394059;28;20026;-57
2023/07/23 11:04:26;;;;;;;11.10;3.63;;;21.00;69.90;;;;;;10406945;28;20342;-58
2023/07/23 11:09:30;;;;;;;9.88;2.97;;;21.00;70.10;;;;;;10408307;28;20167;-57
2023/07/23 11:14:32;;;;;;;15.20;3.22;;;21.00;70.30;;;;;;10405666;28;20028;-58
2023/07/23 11:19:33;;;;;;;17.10;3.25;;;21.00;70.40;;;;;;10405922;28;20022;-57
2023/07/23 11:24:34;;;;;;;8.45;2.60;;;21.00;70.50;;;;;;10404924;28;20033;-57
2023/07/23 11:29:34;;;;;;;13.98;3.80;;;21.00;70.30;;;;;;10390550;28;20033;-55
2023/07/23 11:34:36;;;;;;;11.38;3.38;;;21.00;70.20;;;;;;10390771;28;20357;-57
2023/07/23 11:39:46;;;;;;;16.63;4.40;;;21.10;70.40;;;;;;10403264;28;20116;-57
2023/07/23 11:45:07;;;;;;;11.25;3.97;;;21.00;70.20;;;;;;10375793;28;20032;-55
2023/07/23 11:50:09;;;;;;;7.72;2.67;;;20.90;70.20;;;;;;10395631;28;20696;-56
2023/07/23 11:55:26;;;;;;;11.25;3.20;;;20.90;70.20;;;;;;10387117;28;20049;-57
2023/07/23 12:00:39;;;;;;;4.63;2.53;;;20.90;70.20;;;;;;10395425;28;20040;-55
2023/07/23 12:05:40;;;;;;;5.43;2.35;;;20.90;70.10;;;;;;10391361;28;20050;-57
2023/07/23 12:10:41;;;;;;;7.18;3.50;;;20.90;70.00;;;;;;10382234;28;20038;-58
2023/07/23 12:15:49;;;;;;;7.85;2.65;;;20.90;69.90;;;;;;10393354;28;20033;-56
2023/07/23 12:20:58;;;;;;;7.25;2.53;;;20.90;69.90;;;;;;10383619;28;20053;-57
2023/07/23 12:25:59;;;;;;;7.03;2.60;;;20.90;69.80;;;;;;10401399;28;20057;-55
2023/07/23 12:30:59;;;;;;;8.48;3.17;;;20.90;69.80;;;;;;10402163;28;20022;-57
2023/07/23 12:36:00;;;;;;;6.70;3.00;;;20.90;69.80;;;;;;10401216;28;20415;-57
2023/07/23 12:41:01;;;;;;;6.95;2.78;;;20.90;69.70;;;;;;10380247;28;20056;-56
2023/07/23 12:46:02;;;;;;;11.00;3.10;;;20.90;69.90;;;;;;10366226;28;20113;-56
2023/07/23 12:51:03;;;;;;;13.38;3.45;;;21.00;70.10;;;;;;10364914;28;20049;-55
2023/07/23 12:56:04;;;;;;;6.63;3.55;;;21.00;69.70;;;;;;10375816;28;20105;-56
2023/07/23 13:01:04;;;;;;;17.30;4.85;;;21.10;69.80;;;;;;10397567;28;20092;-57
2023/07/23 13:06:05;;;;;;;15.95;3.83;;;21.20;69.90;;;;;;10398681;28;20113;-57
2023/07/23 13:11:07;;;;;;;13.02;4.57;;;21.20;69.90;;;;;;10405248;28;20119;-58
2023/07/23 13:16:08;;;;;;;12.43;3.60;;;21.10;70.40;;;;;;10419635;28;20445;-57
2023/07/23 13:21:09;;;;;;;19.77;5.40;;;21.10;70.60;;;;;;10405289;28;20115;-60
2023/07/23 13:26:10;;;;;;;9.90;3.70;;;21.20;70.70;;;;;;10391682;28;20651;-60
2023/07/23 13:31:11;;;;;;;13.20;3.30;;;21.20;70.60;;;;;;10398941;28;20685;-59
2023/07/23 13:36:12;;;;;;;11.32;4.03;;;21.10;71.50;;;;;;10393236;28;20125;-58
2023/07/23 13:41:12;;;;;;;14.05;4.25;;;21.10;71.00;;;;;;10403353;28;20038;-56
2023/07/23 13:46:13;;;;;;;12.48;4.28;;;21.10;71.20;;;;;;10401439;28;20058;-56
2023/07/23 13:51:14;;;;;;;11.85;3.75;;;21.20;71.70;;;;;;10388941;28;20022;-58
2023/07/23 13:56:15;;;;;;;15.55;4.05;;;21.20;71.60;;;;;;10404936;28;20578;-57
2023/07/23 14:01:16;;;;;;;13.70;4.45;;;21.20;71.70;;;;;;10400186;28;20021;-59
2023/07/23 14:06:16;;;;;;;17.05;5.00;;;21.20;71.70;;;;;;10401840;28;20014;-57
2023/07/23 14:11:17;;;;;;;11.48;4.80;;;21.20;71.80;;;;;;10397703;28;20033;-60
2023/07/23 14:16:20;;;;;;;19.38;5.50;;;21.10;71.90;;;;;;10400557;28;20100;-59
2023/07/23 14:21:21;;;;;;;18.55;5.80;;;21.20;72.00;;;;;;10399775;28;20052;-57
2023/07/23 14:26:22;;;;;;;27.08;6.03;;;21.20;72.00;;;;;;10408296;28;20457;-60
2023/07/23 14:31:22;;;;;;;19.55;5.97;;;21.20;71.70;;;;;;10411205;28;20025;-60
2023/07/23 14:36:23;;;;;;;21.58;5.97;;;21.10;71.80;;;;;;10410813;28;20508;-56
2023/07/23 14:41:24;;;;;;;18.05;5.22;;;21.10;71.80;;;;;;10409544;28;20128;-57
2023/07/23 14:46:24;;;;;;;17.35;6.65;;;21.10;72.10;;;;;;10406740;28;20545;-57
2023/07/23 14:51:25;;;;;;;22.45;5.72;;;21.20;72.20;;;;;;10407869;28;20030;-57
2023/07/23 14:56:26;;;;;;;17.65;5.70;;;21.20;72.00;;;;;;10394292;28;20014;-56
2023/07/23 15:01:26;;;;;;;22.80;6.35;;;21.20;72.10;;;;;;10404249;28;20028;-56
2023/07/23 15:06:27;;;;;;;21.05;5.72;;;21.30;72.30;;;;;;10406947;28;20031;-57
2023/07/23 15:11:28;;;;;;;23.45;5.35;;;21.40;71.80;;;;;;10410835;28;20070;-58
2023/07/23 15:16:30;;;;;;;21.10;4.88;;;21.40;71.80;;;;;;10369837;28;20052;-57
2023/07/23 15:21:31;;;;;;;17.63;5.78;;;21.30;72.00;;;;;;10387868;28;20018;-61
2023/07/23 15:26:34;;;;;;;15.13;5.60;;;21.30;71.70;;;;;;10391465;28;20079;-59
2023/07/23 15:31:35;;;;;;;32.42;6.70;;;21.40;71.80;;;;;;10394863;28;20064;-56
2023/07/23 15:36:35;;;;;;;22.35;6.28;;;21.40;71.80;;;;;;10386870;28;20013;-59
2023/07/23 15:41:36;;;;;;;24.27;8.40;;;21.40;71.80;;;;;;10402846;28;20042;-58
2023/07/23 15:46:37;;;;;;;12.43;5.80;;;21.30;72.10;;;;;;10404597;28;20161;-58
2023/07/23 15:51:37;;;;;;;17.92;6.63;;;21.40;73.40;;;;;;10406479;28;20030;-58
2023/07/23 15:56:38;;;;;;;17.27;5.90;;;21.50;73.20;;;;;;10407192;28;20117;-58
2023/07/23 16:01:38;;;;;;;13.95;6.25;;;21.40;72.80;;;;;;10401832;28;20105;-57
2023/07/23 16:06:40;;;;;;;10.57;5.72;;;21.60;76.30;;;;;;10382253;28;20116;-54
2023/07/23 16:11:40;;;;;;;12.15;4.85;;;21.70;75.60;;;;;;10404305;28;20034;-55
2023/07/23 16:16:41;;;;;;;9.77;4.35;;;21.70;74.50;;;;;;10401595;28;20016;-57
2023/07/23 16:21:41;;;;;;;8.88;4.28;;;21.80;74.50;;;;;;10398848;28;20014;-57
2023/07/23 16:26:42;;;;;;;8.25;4.55;;;21.80;73.90;;;;;;10403533;28;20159;-57
2023/07/23 16:31:43;;;;;;;12.32;3.92;;;21.80;74.70;;;;;;10399681;28;20126;-60
2023/07/23 16:36:49;;;;;;;14.00;5.32;;;21.80;73.80;;;;;;10404138;28;20018;-59
2023/07/23 16:41:50;;;;;;;5.35;3.55;;;21.70;73.90;;;;;;10382040;28;20045;-59
2023/07/23 16:46:50;;;;;;;10.32;4.38;;;21.60;73.80;;;;;;10403332;28;20036;-57
2023/07/23 16:51:51;;;;;;;7.25;4.32;;;21.50;73.90;;;;;;10389563;28;20029;-57
2023/07/23 16:56:52;;;;;;;11.23;3.92;;;21.40;74.40;;;;;;10394312;28;20057;-57
2023/07/23 17:01:54;;;;;;;11.93;4.38;;;21.40;74.50;;;;;;10398122;28;20397;-57
2023/07/23 17:06:54;;;;;;;13.15;4.65;;;21.40;74.70;;;;;;10404578;28;20056;-60
2023/07/23 17:11:55;;;;;;;15.38;5.68;;;21.40;74.60;;;;;;10381615;28;20029;-57
2023/07/23 17:16:56;;;;;;;15.27;4.18;;;21.50;75.60;;;;;;10382088;28;20445;-61
2023/07/23 17:21:56;;;;;;;17.38;4.53;;;21.60;74.50;;;;;;10403565;28;20057;-62
2023/07/23 17:26:57;;;;;;;14.07;4.43;;;21.60;74.30;;;;;;10374609;28;20045;-61
2023/07/23 17:31:58;;;;;;;11.65;4.07;;;21.50;74.70;;;;;;10396651;28;20484;-61
2023/07/23 17:36:58;;;;;;;14.55;3.92;;;21.50;74.90;;;;;;10414392;28;20064;-61
2023/07/23 17:41:59;;;;;;;9.52;3.72;;;21.50;75.00;;;;;;10392432;28;20390;-61
2023/07/23 17:47:03;;;;;;;44.40;5.53;;;21.50;75.20;;;;;;10412088;28;20552;-60
2023/07/23 17:52:04;;;;;;;27.80;5.00;;;21.50;75.00;;;;;;10405722;28;20372;-62
2023/07/23 17:57:05;;;;;;;25.52;5.03;;;21.50;75.40;;;;;;10404868;28;20013;-60
2023/07/23 18:02:05;;;;;;;13.23;4.50;;;21.50;74.70;;;;;;10405244;28;20025;-60
2023/07/23 18:07:06;;;;;;;9.85;4.97;;;21.50;74.70;;;;;;10404768;28;20030;-63
2023/07/23 18:12:07;;;;;;;10.65;4.65;;;21.40;74.80;;;;;;10400481;28;20157;-62
2023/07/23 18:17:08;;;;;;;14.50;4.90;;;21.40;74.90;;;;;;10395316;28;20073;-62
2023/07/23 18:22:10;;;;;;;12.32;4.72;;;21.40;74.80;;;;;;10362630;28;20803;-61
2023/07/23 18:27:13;;;;;;;12.45;3.75;;;21.40;75.00;;;;;;10365392;28;20503;-64
2023/07/23 18:32:14;;;;;;;7.40;4.07;;;21.80;73.50;;;;;;10362444;28;20034;-62
2023/07/23 18:37:14;;;;;;;10.13;4.55;;;21.60;74.10;;;;;;10386115;28;20441;-59
2023/07/23 18:42:15;;;;;;;6.75;4.13;;;21.60;74.30;;;;;;10398138;28;20069;-61
2023/07/23 18:47:17;;;;;;;5.95;3.72;;;21.60;73.90;;;;;;10401454;28;20048;-61
2023/07/23 18:52:17;;;;;;;7.13;4.53;;;21.60;74.00;;;;;;10399588;28;20061;-63
2023/07/23 18:57:18;;;;;;;8.60;3.45;;;21.70;74.10;;;;;;10397913;28;20105;-57
2023/07/23 19:02:19;;;;;;;9.90;4.22;;;21.60;73.90;;;;;;10398061;28;20112;-62
2023/07/23 19:07:19;;;;;;;5.85;3.58;;;21.50;75.00;;;;;;10366827;28;20056;-61
2023/07/23 19:12:20;;;;;;;5.88;3.25;;;21.40;74.50;;;;;;10406588;28;20067;-62
2023/07/23 19:17:21;;;;;;;7.53;3.35;;;21.30;74.50;;;;;;10405266;28;20006;-61
2023/07/23 19:22:21;;;;;;;6.65;3.08;;;21.40;74.50;;;;;;10406120;28;20018;-61
2023/07/23 19:27:22;;;;;;;6.55;2.97;;;21.30;74.30;;;;;;10386874;28;20098;-61
2023/07/23 19:32:23;;;;;;;6.00;3.35;;;21.30;74.30;;;;;;10380548;28;20026;-63
2023/07/23 19:37:23;;;;;;;4.70;3.10;;;21.30;74.40;;;;;;10368273;28;20090;-61
2023/07/23 19:42:24;;;;;;;5.32;3.20;;;21.30;74.90;;;;;;10367462;28;20529;-62
2023/07/23 19:47:25;;;;;;;6.90;3.15;;;21.20;74.10;;;;;;10380515;28;20134;-62
2023/07/23 19:52:25;;;;;;;6.85;3.55;;;21.20;74.10;;;;;;10381456;28;20114;-61
2023/07/23 19:57:26;;;;;;;4.50;2.47;;;21.20;74.70;;;;;;10368273;28;20026;-61
2023/07/23 20:02:29;;;;;;;3.90;2.70;;;21.20;74.00;;;;;;10368306;28;20021;-62
2023/07/23 20:07:30;;;;;;;3.80;2.40;;;21.20;74.00;;;;;;10372027;28;20037;-62
2023/07/23 20:12:31;;;;;;;5.75;3.13;;;21.20;74.00;;;;;;10415242;28;20029;-61
2023/07/23 20:17:31;;;;;;;4.13;2.65;;;21.20;74.00;;;;;;10386937;28;20017;-61
2023/07/23 20:22:33;;;;;;;3.00;2.22;;;21.20;73.90;;;;;;10402666;28;20018;-61
2023/07/23 20:27:33;;;;;;;3.65;2.67;;;21.20;74.00;;;;;;10388813;28;20027;-61
2023/07/23 20:32:35;;;;;;;3.92;2.75;;;21.20;73.90;;;;;;10383768;28;20417;-61
2023/07/23 20:37:36;;;;;;;3.63;2.58;;;21.20;73.90;;;;;;10366828;28;20040;-61
2023/07/23 20:42:37;;;;;;;3.25;2.13;;;21.10;73.70;;;;;;10364939;28;20038;-61
2023/07/23 20:47:38;;;;;;;4.53;2.78;;;21.10;73.60;;;;;;10366264;28;20022;-61
2023/07/23 20:52:38;;;;;;;3.65;2.25;;;21.10;73.60;;;;;;10379509;28;20093;-61
2023/07/23 20:57:39;;;;;;;3.42;2.20;;;21.10;73.60;;;;;;10365895;28;20057;-62
2023/07/23 21:02:40;;;;;;;3.70;2.42;;;21.10;73.50;;;;;;10364865;28;20029;-60
2023/07/23 21:07:40;;;;;;;3.50;2.10;;;21.10;73.60;;;;;;10370749;28;20013;-62
2023/07/23 21:12:41;;;;;;;3.28;2.10;;;21.10;73.50;;;;;;10406439;28;20024;-61
2023/07/23 21:17:42;;;;;;;3.30;2.03;;;21.10;73.50;;;;;;10383823;28;20032;-62
2023/07/23 21:22:42;;;;;;;3.72;2.20;;;21.10;73.50;;;;;;10365018;28;20164;-60
2023/07/23 21:27:43;;;;;;;4.05;2.40;;;21.10;73.40;;;;;;10364940;28;20093;-61
2023/07/23 21:32:44;;;;;;;3.50;2.00;;;21.10;73.30;;;;;;10363778;28;20032;-62
2023/07/23 21:37:44;;;;;;;3.42;1.80;;;21.10;73.20;;;;;;10364719;28;20061;-61
2023/07/23 21:42:45;;;;;;;2.33;1.67;;;21.10;73.20;;;;;;10363380;28;20183;-62
2023/07/23 21:47:48;;;;;;;3.03;1.88;;;21.10;73.20;;;;;;10363221;28;20805;-62
2023/07/23 21:52:49;;;;;;;3.92;2.13;;;21.10;73.10;;;;;;10363367;28;20140;-60
2023/07/23 21:57:49;;;;;;;3.80;1.90;;;21.10;73.00;;;;;;10375291;28;20025;-60
2023/07/23 22:02:50;;;;;;;2.67;1.75;;;21.00;73.00;;;;;;10407253;28;20104;-61
2023/07/23 22:07:51;;;;;;;2.80;1.98;;;21.10;73.00;;;;;;10394060;28;20132;-61
2023/07/23 22:12:51;;;;;;;3.15;1.73;;;21.10;73.00;;;;;;10404965;28;20060;-62
2023/07/23 22:17:52;;;;;;;2.65;1.80;;;21.10;73.00;;;;;;10367331;28;20489;-61
2023/07/23 22:22:53;;;;;;;3.15;1.92;;;21.00;72.90;;;;;;10361838;28;20115;-61
2023/07/23 22:27:53;;;;;;;2.30;1.75;;;21.10;73.00;;;;;;10362063;28;20128;-62
2023/07/23 22:32:54;;;;;;;3.53;1.83;;;21.10;72.80;;;;;;10362174;28;20552;-62
2023/07/23 22:37:58;;;;;;;3.08;1.90;;;21.00;72.60;;;;;;10361641;28;20505;-62
2023/07/23 22:42:58;;;;;;;2.47;1.33;;;21.10;72.60;;;;;;10363823;28;20533;-62
2023/07/23 22:47:59;;;;;;;2.70;1.85;;;21.00;72.60;;;;;;10370808;28;20101;-62
2023/07/23 22:53:00;;;;;;;2.60;1.33;;;21.00;72.50;;;;;;10369066;28;20412;-61
2023/07/23 22:58:01;;;;;;;2.47;1.50;;;21.00;72.50;;;;;;10369032;28;20029;-61
2023/07/23 23:03:03;;;;;;;2.75;2.17;;;21.00;72.50;;;;;;10368743;28;20517;-61
2023/07/23 23:08:03;;;;;;;3.08;1.80;;;21.00;72.40;;;;;;10379854;28;20457;-62
2023/07/23 23:13:04;;;;;;;2.05;1.40;;;21.00;72.40;;;;;;10425788;28;20022;-61
2023/07/23 23:18:05;;;;;;;2.58;1.88;;;21.00;72.50;;;;;;10371506;28;20022;-61
2023/07/23 23:23:06;;;;;;;2.20;1.45;;;21.00;72.50;;;;;;10369178;28;20122;-61
2023/07/23 23:28:06;;;;;;;3.40;1.42;;;21.00;72.50;;;;;;10369264;28;20619;-61
2023/07/23 23:33:07;;;;;;;2.00;1.38;;;21.00;72.40;;;;;;10369468;28;20022;-61
2023/07/23 23:38:08;;;;;;;2.20;1.23;;;21.00;72.30;;;;;;10367471;28;20600;-61
2023/07/23 23:43:09;;;;;;;2.92;1.67;;;21.00;72.20;;;;;;10369018;28;20042;-61
2023/07/23 23:48:10;;;;;;;3.00;1.75;;;21.00;72.20;;;;;;10367184;28;20026;-60
2023/07/23 23:53:12;;;;;;;2.35;1.23;;;21.00;72.20;;;;;;10367157;28;20587;-61
2023/07/23 23:58:13;;;;;;;2.60;1.42;;;20.90;72.10;;;;;;10367869;28;20029;-61
